createdAt,value
2022-08-17T00:00:58.407Z,0
2022-08-17T00:01:58.574Z,0
2022-08-17T00:02:48.583Z,0
2022-08-17T00:03:38.387Z,0
2022-08-17T00:04:38.589Z,0
2022-08-17T00:05:39.174Z,0
2022-08-17T00:06:39.406Z,0
2022-08-17T00:07:39.343Z,0
2022-08-17T00:08:39.865Z,0
2022-08-17T00:09:40.069Z,0
2022-08-17T00:10:43.597Z,0
2022-08-17T00:11:42.091Z,0
2022-08-17T00:13:02.631Z,0
2022-08-17T00:13:53.549Z,0
2022-08-17T00:14:53.597Z,0
2022-08-17T00:15:54.521Z,0
2022-08-17T00:17:08.381Z,0
2022-08-17T00:17:56.412Z,0
2022-08-17T00:19:18.796Z,0
2022-08-17T00:19:56.996Z,0
2022-08-17T00:20:57.925Z,0
2022-08-17T00:22:45.458Z,0
2022-08-17T00:23:03.292Z,0
2022-08-17T00:24:03.274Z,0
2022-08-17T00:25:03.771Z,0
2022-08-17T00:26:05.405Z,0
2022-08-17T00:27:04.610Z,0
2022-08-17T00:28:06.003Z,0
2022-08-17T00:29:05.273Z,0
2022-08-17T00:30:05.793Z,0
2022-08-17T00:31:06.023Z,0
2022-08-17T00:33:22.302Z,0
2022-08-17T00:33:40.161Z,0
2022-08-17T00:34:42.693Z,0
2022-08-17T00:35:40.908Z,0
2022-08-17T00:36:41.131Z,0
2022-08-17T00:37:41.740Z,0
2022-08-17T00:38:42.045Z,0
2022-08-17T00:39:42.216Z,0
2022-08-17T00:41:01.344Z,0
2022-08-17T00:41:48.110Z,0
2022-08-17T00:42:44.009Z,0
2022-08-17T00:43:45.503Z,0
2022-08-17T00:44:45.402Z,0
2022-08-17T00:45:46.321Z,0
2022-08-17T00:46:46.815Z,0
2022-08-17T00:47:47.021Z,0
2022-08-17T00:48:47.765Z,0
2022-08-17T00:49:47.678Z,0
2022-08-17T00:50:48.879Z,0
2022-08-17T00:51:49.384Z,0
2022-08-17T00:52:49.707Z,0
2022-08-17T00:53:49.695Z,0
2022-08-17T00:54:53.645Z,0
2022-08-17T00:55:51.572Z,0
2022-08-17T00:56:52.299Z,0
2022-08-17T00:57:55.346Z,0
2022-08-17T00:58:52.869Z,0
2022-08-17T01:00:08.595Z,0
2022-08-17T01:00:53.770Z,0
2022-08-17T01:01:54.113Z,0
2022-08-17T01:02:54.312Z,0
2022-08-17T01:03:55.527Z,0
2022-08-17T01:04:54.431Z,0
2022-08-17T01:05:56.432Z,0
2022-08-17T01:06:56.373Z,0
2022-08-17T01:07:56.563Z,0
2022-08-17T01:09:03.540Z,0
2022-08-17T01:09:57.746Z,0
2022-08-17T01:11:11.199Z,0
2022-08-17T01:11:58.690Z,0
2022-08-17T01:12:58.909Z,0
2022-08-17T01:14:00.126Z,0
2022-08-17T01:15:00.324Z,0
2022-08-17T01:16:00.816Z,0
2022-08-17T01:17:00.740Z,0
2022-08-17T01:18:00.957Z,0
2022-08-17T01:19:01.068Z,0
2022-08-17T01:20:01.989Z,0
2022-08-17T01:21:01.933Z,0
2022-08-17T01:22:02.558Z,0
2022-08-17T01:23:03.369Z,0
2022-08-17T01:24:03.292Z,0
2022-08-17T01:25:04.783Z,0
2022-08-17T01:26:04.992Z,0
2022-08-17T01:27:16.357Z,0
2022-08-17T01:28:07.178Z,0
2022-08-17T01:29:35.182Z,0
2022-08-17T01:31:10.019Z,0
2022-08-17T01:31:35.965Z,0
2022-08-17T01:32:36.604Z,0
2022-08-17T01:33:37.244Z,0
2022-08-17T01:34:56.218Z,0
2022-08-17T01:35:39.413Z,0
2022-08-17T01:36:39.342Z,0
2022-08-17T01:37:40.263Z,0
2022-08-17T01:38:40.760Z,0
2022-08-17T01:39:41.049Z,0
2022-08-17T01:40:41.063Z,0
2022-08-17T01:41:42.565Z,0
2022-08-17T01:42:41.190Z,0
2022-08-17T01:43:42.779Z,0
2022-08-17T01:44:44.193Z,0
2022-08-17T01:45:43.387Z,0
2022-08-17T01:46:43.703Z,0
2022-08-17T01:47:47.221Z,0
2022-08-17T01:48:43.671Z,0
2022-08-17T01:49:45.482Z,0
2022-08-17T01:50:45.979Z,0
2022-08-17T01:51:46.191Z,0
2022-08-17T01:52:45.819Z,0
2022-08-17T01:53:47.455Z,0
2022-08-17T01:54:47.676Z,0
2022-08-17T01:55:48.903Z,0
2022-08-17T01:56:52.924Z,0
2022-08-17T01:57:50.147Z,0
2022-08-17T01:58:50.073Z,0
2022-08-17T01:59:50.216Z,0
2022-08-17T02:01:11.182Z,0
2022-08-17T02:01:52.040Z,0
2022-08-17T02:02:52.432Z,0
2022-08-17T02:04:10.861Z,0
2022-08-17T02:04:53.795Z,0
2022-08-17T02:05:54.994Z,0
2022-08-17T02:07:06.429Z,0
2022-08-17T02:08:16.227Z,0
2022-08-17T02:09:24.012Z,0
2022-08-17T02:10:39.855Z,0
2022-08-17T02:11:30.650Z,0
2022-08-17T02:12:58.775Z,0
2022-08-17T02:13:30.414Z,0
2022-08-17T02:14:31.629Z,0
2022-08-17T02:15:32.543Z,0
2022-08-17T02:16:43.801Z,0
2022-08-17T02:17:33.425Z,0
2022-08-17T02:18:34.920Z,0
2022-08-17T02:19:35.139Z,0
2022-08-17T02:20:53.121Z,0
2022-08-17T02:21:36.739Z,0
2022-08-17T02:22:37.966Z,0
2022-08-17T02:23:37.875Z,0
2022-08-17T02:25:12.982Z,0
2022-08-17T02:25:38.880Z,0
2022-08-17T02:26:40.076Z,0
2022-08-17T02:29:45.324Z,0
2022-08-17T02:31:15.322Z,0
2022-08-17T02:32:27.758Z,0
2022-08-17T02:33:17.873Z,0
2022-08-17T02:34:16.728Z,0
2022-08-17T02:35:18.653Z,0
2022-08-17T02:36:18.153Z,0
2022-08-17T02:37:18.596Z,0
2022-08-17T02:38:19.502Z,0
2022-08-17T02:39:19.703Z,0
2022-08-17T02:40:28.588Z,0
2022-08-17T02:41:24.406Z,0
2022-08-17T02:42:25.622Z,0
2022-08-17T02:43:26.269Z,0
2022-08-17T02:44:51.229Z,0
2022-08-17T02:45:27.450Z,0
2022-08-17T02:46:27.665Z,0
2022-08-17T02:47:27.880Z,0
2022-08-17T02:48:42.601Z,0
2022-08-17T02:49:29.104Z,0
2022-08-17T02:50:29.023Z,0
2022-08-17T02:51:30.335Z,0
2022-08-17T02:53:10.225Z,0
2022-08-17T02:53:35.520Z,0
2022-08-17T02:54:52.117Z,0
2022-08-17T02:55:31.615Z,0
2022-08-17T02:56:31.820Z,0
2022-08-17T02:57:32.330Z,0
2022-08-17T02:58:46.166Z,0
2022-08-17T02:59:32.372Z,0
2022-08-17T03:00:33.265Z,0
2022-08-17T03:01:34.373Z,0
2022-08-17T03:02:34.678Z,0
2022-08-17T03:03:34.619Z,0
2022-08-17T03:04:35.623Z,0
2022-08-17T03:05:35.544Z,0
2022-08-17T03:06:36.474Z,0
2022-08-17T03:07:37.405Z,0
2022-08-17T03:08:38.328Z,0
2022-08-17T03:09:38.824Z,0
2022-08-17T03:10:38.737Z,0
2022-08-17T03:11:40.017Z,0
2022-08-17T03:12:40.436Z,0
2022-08-17T03:13:41.645Z,0
2022-08-17T03:14:47.208Z,0
2022-08-17T03:15:49.636Z,0
2022-08-17T03:16:42.262Z,0
2022-08-17T03:17:43.573Z,0
2022-08-17T03:18:43.793Z,0
2022-08-17T03:19:48.999Z,0
2022-08-17T03:20:45.198Z,0
2022-08-17T03:21:45.905Z,0
2022-08-17T03:23:07.155Z,0
2022-08-17T03:23:47.716Z,0
2022-08-17T03:24:47.840Z,0
2022-08-17T03:25:53.225Z,0
2022-08-17T03:26:48.725Z,0
2022-08-17T03:27:57.364Z,0
2022-08-17T03:28:49.985Z,0
2022-08-17T03:29:49.884Z,0
2022-08-17T03:30:50.809Z,0
2022-08-17T03:31:52.115Z,0
2022-08-17T03:32:52.441Z,0
2022-08-17T03:33:52.725Z,0
2022-08-17T03:34:53.637Z,0
2022-08-17T03:35:54.554Z,0
2022-08-17T03:36:54.763Z,0
2022-08-17T03:38:06.911Z,0
2022-08-17T03:38:57.099Z,0
2022-08-17T03:39:56.616Z,0
2022-08-17T03:41:10.010Z,0
2022-08-17T03:41:58.288Z,0
2022-08-17T03:42:58.477Z,0
2022-08-17T03:43:59.394Z,0
2022-08-17T03:45:03.693Z,0
2022-08-17T03:46:03.186Z,0
2022-08-17T03:47:01.498Z,0
2022-08-17T03:48:02.420Z,0
2022-08-17T03:49:03.314Z,0
2022-08-17T03:50:04.509Z,0
2022-08-17T03:51:05.352Z,4
2022-08-17T03:52:05.701Z,4
2022-08-17T03:53:06.049Z,0
2022-08-17T03:54:06.671Z,0
2022-08-17T03:55:07.643Z,4
2022-08-17T03:56:08.558Z,4
2022-08-17T03:57:09.486Z,0
2022-08-17T03:58:10.434Z,4
2022-08-17T03:59:20.781Z,4
2022-08-17T04:00:11.920Z,4
2022-08-17T04:01:12.378Z,4
2022-08-17T04:02:12.835Z,4
2022-08-17T04:03:14.414Z,8
2022-08-17T04:04:14.078Z,4
2022-08-17T04:05:15.058Z,8
2022-08-17T04:06:15.555Z,8
2022-08-17T04:07:15.748Z,12
2022-08-17T04:08:16.530Z,12
2022-08-17T04:09:16.726Z,12
2022-08-17T04:10:17.493Z,16
2022-08-17T04:11:18.217Z,16
2022-08-17T04:12:18.046Z,16
2022-08-17T04:13:24.145Z,16
2022-08-17T04:14:19.073Z,16
2022-08-17T04:15:19.276Z,20
2022-08-17T04:16:20.470Z,20
2022-08-17T04:17:21.959Z,24
2022-08-17T04:18:22.557Z,24
2022-08-17T04:19:22.056Z,24
2022-08-17T04:20:21.978Z,28
2022-08-17T04:21:23.173Z,32
2022-08-17T04:22:45.171Z,36
2022-08-17T04:23:25.146Z,36
2022-08-17T04:24:25.195Z,40
2022-08-17T04:25:26.111Z,40
2022-08-17T04:27:05.196Z,44
2022-08-17T04:27:27.416Z,48
2022-08-17T04:28:27.429Z,44
2022-08-17T04:29:28.630Z,48
2022-08-17T04:30:29.313Z,52
2022-08-17T04:31:29.512Z,56
2022-08-17T04:33:17.037Z,56
2022-08-17T04:33:34.378Z,60
2022-08-17T04:34:34.290Z,64
2022-08-17T04:35:37.119Z,64
2022-08-17T04:36:35.761Z,64
2022-08-17T04:37:36.970Z,72
2022-08-17T04:38:37.461Z,72
2022-08-17T04:39:39.715Z,72
2022-08-17T04:40:39.007Z,76
2022-08-17T04:41:39.324Z,80
2022-08-17T04:42:39.606Z,84
2022-08-17T04:43:39.832Z,84
2022-08-17T04:44:48.539Z,88
2022-08-17T04:45:51.372Z,92
2022-08-17T04:46:41.976Z,96
2022-08-17T04:47:41.892Z,96
2022-08-17T04:48:47.727Z,100
2022-08-17T04:49:43.648Z,104
2022-08-17T04:50:44.229Z,104
2022-08-17T04:52:04.492Z,112
2022-08-17T04:53:12.811Z,116
2022-08-17T04:54:13.008Z,124
2022-08-17T04:55:13.511Z,128
2022-08-17T04:56:22.017Z,128
2022-08-17T04:57:13.937Z,132
2022-08-17T04:58:15.431Z,136
2022-08-17T04:59:15.636Z,140
2022-08-17T05:00:17.449Z,140
2022-08-17T05:01:19.087Z,144
2022-08-17T05:02:18.843Z,152
2022-08-17T05:03:19.183Z,156
2022-08-17T05:04:44.614Z,160
2022-08-17T05:05:20.897Z,164
2022-08-17T05:06:20.114Z,168
2022-08-17T05:07:31.362Z,176
2022-08-17T05:08:20.768Z,176
2022-08-17T05:09:21.671Z,184
2022-08-17T05:10:21.978Z,188
2022-08-17T05:11:23.175Z,196
2022-08-17T05:12:23.671Z,204
2022-08-17T05:13:23.994Z,204
2022-08-17T05:14:27.258Z,216
2022-08-17T05:15:27.730Z,220
2022-08-17T05:16:26.405Z,228
2022-08-17T05:17:26.608Z,232
2022-08-17T05:18:29.860Z,240
2022-08-17T05:19:28.058Z,244
2022-08-17T05:20:28.259Z,248
2022-08-17T05:21:28.465Z,256
2022-08-17T05:22:28.685Z,260
2022-08-17T05:23:32.026Z,264
2022-08-17T05:25:01.924Z,272
2022-08-17T05:25:42.894Z,276
2022-08-17T05:26:43.434Z,280
2022-08-17T05:27:41.558Z,280
2022-08-17T05:28:41.442Z,284
2022-08-17T05:29:44.963Z,288
2022-08-17T05:30:34.464Z,292
2022-08-17T05:31:34.870Z,296
2022-08-17T05:32:49.198Z,300
2022-08-17T05:33:40.442Z,304
2022-08-17T05:34:38.386Z,308
2022-08-17T05:35:39.308Z,316
2022-08-17T05:36:55.219Z,320
2022-08-17T05:37:40.441Z,324
2022-08-17T05:38:40.654Z,328
2022-08-17T05:39:40.998Z,332
2022-08-17T05:40:44.661Z,336
2022-08-17T05:41:41.878Z,340
2022-08-17T05:42:42.174Z,344
2022-08-17T05:43:43.183Z,348
2022-08-17T05:44:43.338Z,352
2022-08-17T05:46:06.566Z,360
2022-08-17T05:46:43.489Z,364
2022-08-17T05:47:43.835Z,368
2022-08-17T05:48:50.431Z,372
2022-08-17T05:49:45.355Z,376
2022-08-17T05:50:47.277Z,380
2022-08-17T05:51:46.195Z,388
2022-08-17T05:52:47.391Z,392
2022-08-17T05:53:50.656Z,396
2022-08-17T05:54:48.859Z,400
2022-08-17T05:55:49.469Z,404
2022-08-17T05:56:49.696Z,408
2022-08-17T05:58:01.653Z,412
2022-08-17T05:58:50.856Z,416
2022-08-17T05:59:51.354Z,424
2022-08-17T06:00:53.186Z,432
2022-08-17T06:01:51.888Z,436
2022-08-17T06:02:59.309Z,440
2022-08-17T06:03:53.317Z,448
2022-08-17T06:04:53.868Z,456
2022-08-17T06:05:55.089Z,460
2022-08-17T06:06:55.287Z,468
2022-08-17T06:07:55.781Z,472
2022-08-17T06:08:57.160Z,480
2022-08-17T06:09:56.384Z,484
2022-08-17T06:10:57.710Z,492
2022-08-17T06:12:04.178Z,500
2022-08-17T06:12:57.674Z,508
2022-08-17T06:13:57.989Z,512
2022-08-17T06:14:58.897Z,520
2022-08-17T06:15:59.838Z,528
2022-08-17T06:17:00.967Z,532
2022-08-17T06:18:01.195Z,544
2022-08-17T06:19:01.422Z,548
2022-08-17T06:20:01.931Z,556
2022-08-17T06:21:02.170Z,560
2022-08-17T06:22:02.666Z,568
2022-08-17T06:25:04.309Z,592
2022-08-17T06:26:05.228Z,596
2022-08-17T06:27:05.126Z,604
2022-08-17T06:28:06.034Z,612
2022-08-17T06:30:07.750Z,628
2022-08-17T06:31:11.961Z,636
2022-08-17T06:32:08.909Z,640
2022-08-17T06:33:09.407Z,652
2022-08-17T06:34:10.149Z,660
2022-08-17T06:35:11.086Z,664
2022-08-17T06:36:15.848Z,676
2022-08-17T06:37:11.425Z,668
2022-08-17T06:38:12.982Z,680
2022-08-17T06:39:12.599Z,688
2022-08-17T06:40:13.847Z,696
2022-08-17T06:41:14.070Z,696
2022-08-17T06:43:07.184Z,716
2022-08-17T06:43:25.874Z,716
2022-08-17T06:45:02.091Z,728
2022-08-17T06:45:26.594Z,732
2022-08-17T06:46:27.107Z,740
2022-08-17T06:47:40.204Z,752
2022-08-17T06:48:28.840Z,752
2022-08-17T06:49:29.480Z,760
2022-08-17T06:50:29.685Z,828
2022-08-17T06:51:30.616Z,1344
2022-08-17T06:52:58.441Z,2792
2022-08-17T06:53:32.499Z,3476
2022-08-17T06:54:33.230Z,4764
2022-08-17T06:55:37.823Z,5456
2022-08-17T06:57:00.918Z,4820
2022-08-17T06:57:35.128Z,4528
2022-08-17T06:58:41.797Z,4308
2022-08-17T07:00:02.231Z,4396
2022-08-17T07:00:36.461Z,4364
2022-08-17T07:01:37.803Z,4104
2022-08-17T07:03:03.772Z,4232
2022-08-17T07:03:39.175Z,3888
2022-08-17T07:04:39.229Z,3516
2022-08-17T07:05:40.169Z,3908
2022-08-17T07:06:44.180Z,4520
2022-08-17T07:07:41.376Z,4260
2022-08-17T07:08:45.763Z,3964
2022-08-17T07:09:42.401Z,3984
2022-08-17T07:10:43.611Z,3528
2022-08-17T07:11:44.111Z,3096
2022-08-17T07:12:44.747Z,3236
2022-08-17T07:13:49.227Z,4140
2022-08-17T07:14:46.863Z,4568
2022-08-17T07:15:46.767Z,4592
2022-08-17T07:16:47.707Z,4500
2022-08-17T07:17:59.382Z,3368
2022-08-17T07:18:48.736Z,2820
2022-08-17T07:19:49.578Z,2152
2022-08-17T07:20:50.368Z,1892
2022-08-17T07:21:51.578Z,1800
2022-08-17T07:23:08.789Z,1848
2022-08-17T07:23:51.718Z,1916
2022-08-17T07:24:52.801Z,1868
2022-08-17T07:25:52.999Z,1848
2022-08-17T07:26:53.946Z,1908
2022-08-17T07:27:55.848Z,1880
2022-08-17T07:28:54.774Z,1708
2022-08-17T07:29:56.003Z,1716
2022-08-17T07:30:58.724Z,1912
2022-08-17T07:31:56.931Z,1972
2022-08-17T07:32:57.163Z,1908
2022-08-17T07:33:58.662Z,1768
2022-08-17T07:34:58.695Z,1696
2022-08-17T07:35:59.228Z,1624
2022-08-17T07:36:58.896Z,1520
2022-08-17T07:38:00.060Z,1416
2022-08-17T07:39:00.131Z,1372
2022-08-17T07:40:27.251Z,1384
2022-08-17T07:41:01.602Z,1412
2022-08-17T07:42:08.254Z,1420
2022-08-17T07:43:02.485Z,1396
2022-08-17T07:44:02.773Z,1376
2022-08-17T07:45:03.782Z,1340
2022-08-17T07:46:04.281Z,1288
2022-08-17T07:47:05.918Z,1276
2022-08-17T07:48:05.124Z,1264
2022-08-17T07:49:04.919Z,1276
2022-08-17T07:50:05.890Z,1316
2022-08-17T07:51:06.099Z,1464
2022-08-17T07:52:57.538Z,1512
2022-08-17T07:53:15.045Z,1488
2022-08-17T07:54:26.190Z,1412
2022-08-17T07:55:14.751Z,1312
2022-08-17T07:56:14.969Z,1260
2022-08-17T07:57:15.184Z,1228
2022-08-17T07:58:15.831Z,1204
2022-08-17T07:59:20.479Z,1176
2022-08-17T08:00:38.277Z,1172
2022-08-17T08:01:23.299Z,1172
2022-08-17T08:02:23.072Z,1160
2022-08-17T08:03:20.182Z,1256
2022-08-17T08:05:02.555Z,1256
2022-08-17T08:06:04.171Z,1300
2022-08-17T08:07:04.523Z,1368
2022-08-17T08:08:05.453Z,1388
2022-08-17T08:09:05.479Z,1356
2022-08-17T08:10:06.107Z,1268
2022-08-17T08:11:07.024Z,1252
2022-08-17T08:12:08.250Z,1236
2022-08-17T08:13:12.152Z,1216
2022-08-17T08:14:09.117Z,1192
2022-08-17T08:15:09.401Z,1224
2022-08-17T08:16:09.550Z,1228
2022-08-17T08:17:14.656Z,1212
2022-08-17T08:18:10.885Z,1200
2022-08-17T08:19:11.343Z,1224
2022-08-17T08:20:59.376Z,1272
2022-08-17T08:21:16.574Z,1292
2022-08-17T08:22:16.222Z,1300
2022-08-17T08:23:17.208Z,1328
2022-08-17T08:24:18.134Z,1400
2022-08-17T08:25:17.762Z,1624
2022-08-17T08:26:24.419Z,2772
2022-08-17T08:27:18.648Z,3844
2022-08-17T08:28:19.873Z,5172
2022-08-17T08:29:22.271Z,7364
2022-08-17T08:30:20.278Z,8300
2022-08-17T08:31:20.741Z,9652
2022-08-17T08:32:20.460Z,9928
2022-08-17T08:33:21.779Z,10048
2022-08-17T08:35:12.232Z,10184
2022-08-17T08:35:28.901Z,10420
2022-08-17T08:37:46.004Z,10984
2022-08-17T08:38:02.914Z,11120
2022-08-17T08:39:03.873Z,10892
2022-08-17T08:40:05.123Z,11292
2022-08-17T08:41:05.228Z,11384
2022-08-17T08:42:06.472Z,11576
2022-08-17T08:43:06.407Z,11796
2022-08-17T08:44:07.340Z,11924
2022-08-17T08:45:16.765Z,12284
2022-08-17T08:46:07.905Z,12468
2022-08-17T08:47:08.717Z,12592
2022-08-17T08:49:06.664Z,11252
2022-08-17T08:50:09.038Z,11616
2022-08-17T08:50:54.292Z,12296
2022-08-17T08:51:57.385Z,12904
2022-08-17T08:52:55.321Z,12400
2022-08-17T08:53:55.274Z,12776
2022-08-17T08:54:55.915Z,12776
2022-08-17T08:55:56.874Z,12680
2022-08-17T08:57:40.258Z,12472
2022-08-17T08:58:54.621Z,11848
2022-08-17T09:00:04.207Z,11364
2022-08-17T09:00:56.168Z,11432
2022-08-17T09:01:56.977Z,11588
2022-08-17T09:02:57.357Z,10804
2022-08-17T09:04:30.637Z,11752
2022-08-17T09:05:25.556Z,11560
2022-08-17T09:06:50.787Z,11500
2022-08-17T09:07:23.295Z,11304
2022-08-17T09:08:23.803Z,10292
2022-08-17T09:09:24.236Z,10116
2022-08-17T09:10:25.743Z,9160
2022-08-17T09:11:25.380Z,9556
2022-08-17T09:12:26.105Z,10084
2022-08-17T09:13:27.323Z,10148
2022-08-17T09:14:43.236Z,10660
2022-08-17T09:15:28.612Z,9748
2022-08-17T09:16:29.867Z,10580
2022-08-17T09:17:30.610Z,11068
2022-08-17T09:19:13.819Z,11084
2022-08-17T09:20:01.816Z,10700
2022-08-17T09:21:02.082Z,10476
2022-08-17T09:22:02.581Z,11096
2022-08-17T09:23:02.927Z,11332
2022-08-17T09:24:03.760Z,11056
2022-08-17T09:25:03.988Z,10904
2022-08-17T09:26:04.243Z,10912
2022-08-17T09:27:04.463Z,10704
2022-08-17T09:28:06.781Z,9476
2022-08-17T09:29:06.008Z,9952
2022-08-17T09:30:07.319Z,10172
2022-08-17T09:31:07.542Z,10316
2022-08-17T09:32:08.189Z,10808
2022-08-17T09:33:09.414Z,10084
2022-08-17T09:34:10.367Z,10612
2022-08-17T09:35:10.522Z,10816
2022-08-17T09:36:11.810Z,10960
2022-08-17T09:37:12.039Z,11340
2022-08-17T09:38:14.965Z,11624
2022-08-17T09:39:13.651Z,12016
2022-08-17T09:40:15.128Z,11636
2022-08-17T09:41:15.473Z,11532
2022-08-17T09:42:15.693Z,12204
2022-08-17T09:43:15.384Z,12336
2022-08-17T09:44:29.527Z,11960
2022-08-17T09:45:17.639Z,11684
2022-08-17T09:46:17.291Z,11220
2022-08-17T09:47:18.238Z,11624
2022-08-17T09:48:19.599Z,11316
2022-08-17T09:49:23.211Z,11420
2022-08-17T09:50:20.044Z,11288
2022-08-17T09:51:20.693Z,11288
2022-08-17T09:52:24.024Z,10772
2022-08-17T09:53:22.402Z,10896
2022-08-17T09:54:50.446Z,10232
2022-08-17T09:55:25.180Z,10420
2022-08-17T09:56:25.392Z,9188
2022-08-17T09:57:41.399Z,8996
2022-08-17T09:58:34.188Z,8872
2022-08-17T09:59:27.746Z,8520
2022-08-17T10:00:27.270Z,7996
2022-08-17T10:01:28.040Z,8876
2022-08-17T10:02:28.827Z,8132
2022-08-17T10:03:29.276Z,7580
2022-08-17T10:04:35.085Z,7996
2022-08-17T10:05:30.014Z,8584
2022-08-17T10:06:33.347Z,9016
2022-08-17T10:07:30.751Z,8940
2022-08-17T10:08:33.317Z,8312
2022-08-17T10:09:31.967Z,6796
2022-08-17T10:10:37.827Z,6668
2022-08-17T10:11:53.728Z,8664
2022-08-17T10:12:43.139Z,8956
2022-08-17T10:13:39.722Z,9032
2022-08-17T10:15:02.323Z,7248
2022-08-17T10:15:36.158Z,8512
2022-08-17T10:16:37.775Z,7212
2022-08-17T10:17:38.007Z,8016
2022-08-17T10:18:44.135Z,8532
2022-08-17T10:19:39.490Z,7092
2022-08-17T10:20:39.933Z,8432
2022-08-17T10:21:40.881Z,7136
2022-08-17T10:22:52.709Z,7660
2022-08-17T10:23:42.137Z,9344
2022-08-17T10:25:02.313Z,8688
2022-08-17T10:26:06.400Z,10120
2022-08-17T10:27:08.307Z,9844
2022-08-17T10:28:02.718Z,9304
2022-08-17T10:29:02.558Z,9628
2022-08-17T10:30:02.706Z,9792
2022-08-17T10:31:39.915Z,6016
2022-08-17T10:32:03.540Z,5484
2022-08-17T10:33:03.900Z,7316
2022-08-17T10:34:04.553Z,8472
2022-08-17T10:35:05.898Z,7792
2022-08-17T10:36:16.218Z,7084
2022-08-17T10:37:06.165Z,8904
2022-08-17T10:38:07.389Z,8184
2022-08-17T10:39:08.195Z,5344
2022-08-17T10:40:08.816Z,5216
2022-08-17T10:41:09.662Z,5488
2022-08-17T10:42:10.176Z,6460
2022-08-17T10:43:11.186Z,8784
2022-08-17T10:44:51.593Z,9928
2022-08-17T10:45:11.828Z,9804
2022-08-17T10:46:41.130Z,9676
2022-08-17T10:47:12.802Z,10672
2022-08-17T10:48:18.684Z,10256
2022-08-17T10:49:13.899Z,9908
2022-08-17T10:50:14.539Z,9416
2022-08-17T10:51:14.819Z,9832
2022-08-17T10:52:16.033Z,9180
2022-08-17T10:53:19.825Z,7460
2022-08-17T10:54:16.544Z,7184
2022-08-17T10:55:17.779Z,5600
2022-08-17T10:56:17.726Z,6712
2022-08-17T10:57:18.368Z,6976
2022-08-17T10:58:19.880Z,6700
2022-08-17T10:59:20.197Z,9280
2022-08-17T11:00:23.003Z,8848
2022-08-17T11:01:21.118Z,8228
2022-08-17T11:02:21.380Z,7996
2022-08-17T11:03:22.296Z,7436
2022-08-17T11:04:23.497Z,8496
2022-08-17T11:05:23.400Z,8568
2022-08-17T11:06:24.312Z,8916
2022-08-17T11:07:25.252Z,9088
2022-08-17T11:08:28.769Z,8932
2022-08-17T11:09:25.991Z,8408
2022-08-17T11:10:26.218Z,7428
2022-08-17T11:11:26.947Z,8632
2022-08-17T11:12:27.181Z,8428
2022-08-17T11:13:27.397Z,8436
2022-08-17T11:14:28.036Z,8092
2022-08-17T11:15:30.764Z,7644
2022-08-17T11:16:29.402Z,8104
2022-08-17T11:19:30.976Z,8128
2022-08-17T11:20:31.883Z,8124
2022-08-17T11:21:32.900Z,7880
2022-08-17T11:22:39.298Z,8148
2022-08-17T11:23:34.379Z,7644
2022-08-17T11:24:34.590Z,8192
2022-08-17T11:25:35.358Z,7804
2022-08-17T11:26:35.585Z,6600
2022-08-17T11:27:36.240Z,4280
2022-08-17T11:28:37.498Z,3328
2022-08-17T11:29:42.184Z,2616
2022-08-17T11:30:40.419Z,2196
2022-08-17T11:31:54.062Z,2100
2022-08-17T11:33:02.003Z,2164
2022-08-17T11:33:53.522Z,2116
2022-08-17T11:34:53.740Z,2020
2022-08-17T11:35:54.100Z,2024
2022-08-17T11:36:56.038Z,2412
2022-08-17T11:39:02.464Z,2316
2022-08-17T11:39:57.410Z,3604
2022-08-17T11:40:58.700Z,2216
2022-08-17T11:41:59.737Z,2164
2022-08-17T11:42:59.733Z,2164
2022-08-17T11:44:00.036Z,2340
2022-08-17T11:45:01.128Z,2888
2022-08-17T11:46:01.646Z,2604
2022-08-17T11:47:03.378Z,2772
2022-08-17T11:48:35.570Z,6628
2022-08-17T11:49:03.295Z,6060
2022-08-17T11:50:03.460Z,7532
2022-08-17T11:51:04.778Z,7856
2022-08-17T11:52:07.137Z,8396
2022-08-17T11:53:05.484Z,8016
2022-08-17T11:54:40.844Z,6452
2022-08-17T11:55:45.966Z,6856
2022-08-17T11:56:07.877Z,7380
2022-08-17T11:57:08.391Z,7024
2022-08-17T11:58:08.605Z,6420
2022-08-17T11:59:09.613Z,5536
2022-08-17T12:00:10.527Z,6008
2022-08-17T12:01:12.373Z,5064
2022-08-17T12:02:12.090Z,4196
2022-08-17T12:03:12.489Z,3972
2022-08-17T12:04:13.532Z,4324
2022-08-17T12:05:18.062Z,5576
2022-08-17T12:06:13.982Z,6308
2022-08-17T12:07:15.203Z,6504
2022-08-17T12:08:16.151Z,6140
2022-08-17T12:09:16.360Z,6340
2022-08-17T12:10:17.312Z,6516
2022-08-17T12:11:17.227Z,6328
2022-08-17T12:12:59.101Z,6628
2022-08-17T12:13:59.339Z,6088
2022-08-17T12:15:23.824Z,5620
2022-08-17T12:15:59.787Z,4304
2022-08-17T12:17:00.054Z,4408
2022-08-17T12:18:01.633Z,4884
2022-08-17T12:19:01.476Z,5624
2022-08-17T12:20:01.413Z,5984
2022-08-17T12:21:07.963Z,6680
2022-08-17T12:22:01.606Z,6488
2022-08-17T12:23:02.182Z,5168
2022-08-17T12:24:02.403Z,6400
2022-08-17T12:25:02.620Z,6740
2022-08-17T12:26:02.847Z,6648
2022-08-17T12:27:03.790Z,6328
2022-08-17T12:28:20.673Z,6036
2022-08-17T12:29:06.557Z,6656
2022-08-17T12:30:05.371Z,6704
2022-08-17T12:31:06.601Z,6772
2022-08-17T12:32:07.285Z,6844
2022-08-17T12:33:07.719Z,6432
2022-08-17T12:34:08.666Z,6308
2022-08-17T12:35:09.188Z,5832
2022-08-17T12:36:10.564Z,6232
2022-08-17T12:37:09.913Z,6096
2022-08-17T12:38:26.973Z,5980
2022-08-17T12:39:30.407Z,5368
2022-08-17T12:40:11.482Z,5248
2022-08-17T12:41:11.199Z,5268
2022-08-17T12:42:18.806Z,5548
2022-08-17T12:43:12.820Z,5352
2022-08-17T12:44:13.862Z,5512
2022-08-17T12:45:14.077Z,5320
2022-08-17T12:46:27.334Z,5396
2022-08-17T12:47:19.498Z,5552
2022-08-17T12:48:15.575Z,5656
2022-08-17T12:49:16.087Z,5612
2022-08-17T12:50:35.748Z,5976
2022-08-17T12:51:16.491Z,6092
2022-08-17T12:52:17.430Z,6216
2022-08-17T12:53:16.984Z,6628
2022-08-17T12:54:18.221Z,6172
2022-08-17T12:55:19.457Z,5148
2022-08-17T12:56:19.842Z,4868
2022-08-17T12:57:19.802Z,4212
2022-08-17T12:58:24.809Z,5164
2022-08-17T12:59:38.377Z,3500
2022-08-17T13:00:20.961Z,3808
2022-08-17T13:01:21.298Z,1612
2022-08-17T13:02:21.515Z,2172
2022-08-17T13:03:24.054Z,1540
2022-08-17T13:04:22.034Z,1748
2022-08-17T13:05:22.764Z,1840
2022-08-17T13:06:22.716Z,2012
2022-08-17T13:07:23.635Z,1236
2022-08-17T13:08:23.851Z,1120
2022-08-17T13:09:23.759Z,1316
2022-08-17T13:10:28.718Z,1352
2022-08-17T13:11:25.858Z,1764
2022-08-17T13:12:26.772Z,1880
2022-08-17T13:13:27.493Z,1764
2022-08-17T13:14:28.129Z,1800
2022-08-17T13:15:28.737Z,2108
2022-08-17T13:16:29.694Z,1976
2022-08-17T13:17:30.054Z,1808
2022-08-17T13:18:30.990Z,1784
2022-08-17T13:19:50.917Z,1784
2022-08-17T13:20:31.566Z,1692
2022-08-17T13:21:32.610Z,1480
2022-08-17T13:22:33.120Z,1432
2022-08-17T13:23:34.475Z,1408
2022-08-17T13:24:37.967Z,1380
2022-08-17T13:25:34.467Z,1332
2022-08-17T13:26:35.130Z,1252
2022-08-17T13:27:36.373Z,1160
2022-08-17T13:28:46.749Z,1060
2022-08-17T13:29:37.960Z,996
2022-08-17T13:30:38.623Z,976
2022-08-17T13:32:04.309Z,988
2022-08-17T13:32:39.870Z,996
2022-08-17T13:33:56.916Z,1016
2022-08-17T13:35:46.500Z,1044
2022-08-17T13:36:08.803Z,1056
2022-08-17T13:37:16.297Z,1120
2022-08-17T13:38:08.691Z,1200
2022-08-17T13:39:09.623Z,1408
2022-08-17T13:40:10.974Z,1792
2022-08-17T13:41:11.016Z,1788
2022-08-17T13:42:13.673Z,2752
2022-08-17T13:43:12.476Z,3472
2022-08-17T13:44:12.455Z,4396
2022-08-17T13:45:50.303Z,2252
2022-08-17T13:46:13.248Z,2064
2022-08-17T13:47:13.888Z,2948
2022-08-17T13:48:17.927Z,4232
2022-08-17T13:49:14.863Z,2664
2022-08-17T13:50:15.219Z,3396
2022-08-17T13:51:16.762Z,4724
2022-08-17T13:52:22.401Z,4736
2022-08-17T13:53:16.544Z,4680
2022-08-17T13:54:17.560Z,4624
2022-08-17T13:55:17.193Z,4544
2022-08-17T13:56:45.721Z,4508
2022-08-17T13:57:18.655Z,4420
2022-08-17T13:58:18.965Z,4480
2022-08-17T13:59:22.964Z,4388
2022-08-17T14:00:19.837Z,3140
2022-08-17T14:01:24.012Z,4228
2022-08-17T14:02:20.853Z,4016
2022-08-17T14:03:22.065Z,3972
2022-08-17T14:04:22.779Z,3936
2022-08-17T14:05:23.417Z,3780
2022-08-17T14:06:59.895Z,3656
2022-08-17T14:07:24.823Z,3588
2022-08-17T14:08:25.763Z,3768
2022-08-17T14:09:26.839Z,3724
2022-08-17T14:10:27.456Z,3648
2022-08-17T14:11:28.595Z,3580